sensor_id;sensor_type;location;lat;lon;timestamp;temperature;humidity
610;DHT22;292;48.800;9.216;2023-12-29T00:02:15;12.50;71.20
610;DHT22;292;48.800;9.216;2023-12-29T00:04:42;12.50;71.20
610;DHT22;292;48.800;9.216;2023-12-29T00:07:09;12.50;71.10
610;DHT22;292;48.800;9.216;2023-12-29T00:09:36;12.50;70.90
610;DHT22;292;48.800;9.216;2023-12-29T00:12:06;12.50;70.60
610;DHT22;292;48.800;9.216;2023-12-29T00:14:36;12.50;70.60
610;DHT22;292;48.800;9.216;2023-12-29T00:17:04;12.50;70.50
610;DHT22;292;48.800;9.216;2023-12-29T00:19:31;12.50;70.50
610;DHT22;292;48.800;9.216;2023-12-29T00:21:58;12.50;70.50
610;DHT22;292;48.800;9.216;2023-12-29T00:24:28;12.60;70.30
610;DHT22;292;48.800;9.216;2023-12-29T00:26:56;12.60;70.20
610;DHT22;292;48.800;9.216;2023-12-29T00:29:24;12.60;70.20
610;DHT22;292;48.800;9.216;2023-12-29T00:31:52;12.60;69.90
610;DHT22;292;48.800;9.216;2023-12-29T00:34:19;12.60;69.90
610;DHT22;292;48.800;9.216;2023-12-29T00:36:46;12.70;69.60
610;DHT22;292;48.800;9.216;2023-12-29T00:39:13;12.70;69.60
610;DHT22;292;48.800;9.216;2023-12-29T00:41:40;12.70;69.30
610;DHT22;292;48.800;9.216;2023-12-29T00:44:07;12.70;69.30
610;DHT22;292;48.800;9.216;2023-12-29T00:46:35;12.70;69.20
610;DHT22;292;48.800;9.216;2023-12-29T00:49:03;12.70;69.20
610;DHT22;292;48.800;9.216;2023-12-29T00:51:30;12.70;69.20
610;DHT22;292;48.800;9.216;2023-12-29T00:53:57;12.70;69.00
610;DHT22;292;48.800;9.216;2023-12-29T00:56:24;12.70;69.00
610;DHT22;292;48.800;9.216;2023-12-29T00:58:51;12.70;69.00
610;DHT22;292;48.800;9.216;2023-12-29T01:01:18;12.70;69.00
610;DHT22;292;48.800;9.216;2023-12-29T01:03:45;12.70;68.90
610;DHT22;292;48.800;9.216;2023-12-29T01:06:13;12.70;68.90
610;DHT22;292;48.800;9.216;2023-12-29T01:08:41;12.70;68.90
610;DHT22;292;48.800;9.216;2023-12-29T01:11:08;12.80;68.90
610;DHT22;292;48.800;9.216;2023-12-29T01:13:35;12.70;68.70
610;DHT22;292;48.800;9.216;2023-12-29T01:16:03;12.70;68.90
610;DHT22;292;48.800;9.216;2023-12-29T01:18:30;12.70;68.90
610;DHT22;292;48.800;9.216;2023-12-29T01:20:57;12.70;68.90
610;DHT22;292;48.800;9.216;2023-12-29T01:23:25;12.70;68.90
610;DHT22;292;48.800;9.216;2023-12-29T01:25:52;12.70;68.60
610;DHT22;292;48.800;9.216;2023-12-29T01:28:19;12.70;68.70
610;DHT22;292;48.800;9.216;2023-12-29T01:30:49;12.70;68.50
610;DHT22;292;48.800;9.216;2023-12-29T01:33:16;12.70;68.30
610;DHT22;292;48.800;9.216;2023-12-29T01:35:45;12.70;68.30
610;DHT22;292;48.800;9.216;2023-12-29T01:38:12;12.70;68.20
610;DHT22;292;48.800;9.216;2023-12-29T01:40:44;12.70;68.00
610;DHT22;292;48.800;9.216;2023-12-29T01:43:11;12.70;68.00
610;DHT22;292;48.800;9.216;2023-12-29T01:45:38;12.70;68.00
610;DHT22;292;48.800;9.216;2023-12-29T01:48:06;12.70;67.90
610;DHT22;292;48.800;9.216;2023-12-29T01:50:35;12.70;67.90
610;DHT22;292;48.800;9.216;2023-12-29T01:53:03;12.60;67.90
610;DHT22;292;48.800;9.216;2023-12-29T01:55:32;12.60;67.90
610;DHT22;292;48.800;9.216;2023-12-29T01:58:02;12.60;67.70
610;DHT22;292;48.800;9.216;2023-12-29T02:00:29;12.60;67.60
610;DHT22;292;48.800;9.216;2023-12-29T02:02:57;12.60;67.60
610;DHT22;292;48.800;9.216;2023-12-29T02:05:27;12.60;67.60
610;DHT22;292;48.800;9.216;2023-12-29T02:07:56;12.70;67.60
610;DHT22;292;48.800;9.216;2023-12-29T02:10:23;12.60;67.60
610;DHT22;292;48.800;9.216;2023-12-29T02:12:50;12.60;67.60
610;DHT22;292;48.800;9.216;2023-12-29T02:15:21;12.60;67.60
610;DHT22;292;48.800;9.216;2023-12-29T02:17:52;12.60;67.60
610;DHT22;292;48.800;9.216;2023-12-29T02:20:22;12.60;67.70
610;DHT22;292;48.800;9.216;2023-12-29T02:22:49;12.60;67.70
610;DHT22;292;48.800;9.216;2023-12-29T02:25:17;12.60;67.90
610;DHT22;292;48.800;9.216;2023-12-29T02:27:51;12.70;67.90
610;DHT22;292;48.800;9.216;2023-12-29T02:30:26;12.70;67.90
610;DHT22;292;48.800;9.216;2023-12-29T02:32:59;12.70;67.90
610;DHT22;292;48.800;9.216;2023-12-29T02:35:28;12.70;67.90
610;DHT22;292;48.800;9.216;2023-12-29T02:37:59;12.70;67.90
610;DHT22;292;48.800;9.216;2023-12-29T02:40:27;12.70;67.90
610;DHT22;292;48.800;9.216;2023-12-29T02:42:54;12.60;67.90
610;DHT22;292;48.800;9.216;2023-12-29T02:45:22;12.70;67.90
610;DHT22;292;48.800;9.216;2023-12-29T02:47:49;12.70;67.90
610;DHT22;292;48.800;9.216;2023-12-29T02:50:16;12.70;67.70
610;DHT22;292;48.800;9.216;2023-12-29T02:52:43;12.70;67.70
610;DHT22;292;48.800;9.216;2023-12-29T02:55:10;12.70;67.60
610;DHT22;292;48.800;9.216;2023-12-29T02:57:39;12.70;67.70
610;DHT22;292;48.800;9.216;2023-12-29T03:00:07;12.70;67.60
610;DHT22;292;48.800;9.216;2023-12-29T03:02:34;12.60;67.70
610;DHT22;292;48.800;9.216;2023-12-29T03:05:01;12.60;68.00
610;DHT22;292;48.800;9.216;2023-12-29T03:07:28;12.60;68.50
610;DHT22;292;48.800;9.216;2023-12-29T03:09:55;12.60;68.60
610;DHT22;292;48.800;9.216;2023-12-29T03:12:22;12.60;69.00
610;DHT22;292;48.800;9.216;2023-12-29T03:14:50;12.50;69.30
610;DHT22;292;48.800;9.216;2023-12-29T03:17:17;12.50;69.50
610;DHT22;292;48.800;9.216;2023-12-29T03:19:44;12.50;69.80
610;DHT22;292;48.800;9.216;2023-12-29T03:22:14;12.50;69.90
610;DHT22;292;48.800;9.216;2023-12-29T03:24:41;12.50;70.00
610;DHT22;292;48.800;9.216;2023-12-29T03:27:08;12.50;70.20
610;DHT22;292;48.800;9.216;2023-12-29T03:29:35;12.40;70.20
610;DHT22;292;48.800;9.216;2023-12-29T03:32:04;12.40;70.30
610;DHT22;292;48.800;9.216;2023-12-29T03:34:32;12.40;70.50
610;DHT22;292;48.800;9.216;2023-12-29T03:37:00;12.40;70.60
610;DHT22;292;48.800;9.216;2023-12-29T03:39:27;12.40;70.60
610;DHT22;292;48.800;9.216;2023-12-29T03:41:55;12.40;70.80
610;DHT22;292;48.800;9.216;2023-12-29T03:44:22;12.40;70.80
610;DHT22;292;48.800;9.216;2023-12-29T03:46:49;12.40;70.90
610;DHT22;292;48.800;9.216;2023-12-29T03:49:18;12.40;71.10
610;DHT22;292;48.800;9.216;2023-12-29T03:51:46;12.40;71.10
610;DHT22;292;48.800;9.216;2023-12-29T03:54:13;12.40;71.20
610;DHT22;292;48.800;9.216;2023-12-29T03:56:39;12.30;71.30
610;DHT22;292;48.800;9.216;2023-12-29T03:59:07;12.30;71.50
610;DHT22;292;48.800;9.216;2023-12-29T04:01:35;12.30;71.50
610;DHT22;292;48.800;9.216;2023-12-29T04:04:02;12.30;71.60
610;DHT22;292;48.800;9.216;2023-12-29T04:06:30;12.30;71.80
610;DHT22;292;48.800;9.216;2023-12-29T04:08:57;12.30;71.80
610;DHT22;292;48.800;9.216;2023-12-29T04:11:24;12.30;71.90
610;DHT22;292;48.800;9.216;2023-12-29T04:13:51;12.30;71.90
610;DHT22;292;48.800;9.216;2023-12-29T04:16:18;12.30;72.20
610;DHT22;292;48.800;9.216;2023-12-29T04:18:45;12.30;72.50
610;DHT22;292;48.800;9.216;2023-12-29T04:21:14;12.30;72.50
610;DHT22;292;48.800;9.216;2023-12-29T04:23:43;12.30;72.50
610;DHT22;292;48.800;9.216;2023-12-29T04:26:09;12.30;72.60
610;DHT22;292;48.800;9.216;2023-12-29T04:28:36;12.30;72.80
610;DHT22;292;48.800;9.216;2023-12-29T04:31:03;12.30;72.60
610;DHT22;292;48.800;9.216;2023-12-29T04:33:30;12.30;72.80
610;DHT22;292;48.800;9.216;2023-12-29T04:35:57;12.30;72.80
610;DHT22;292;48.800;9.216;2023-12-29T04:38:24;12.30;72.90
610;DHT22;292;48.800;9.216;2023-12-29T04:40:53;12.20;73.10
610;DHT22;292;48.800;9.216;2023-12-29T04:43:20;12.20;73.20
610;DHT22;292;48.800;9.216;2023-12-29T04:45:47;12.20;73.40
610;DHT22;292;48.800;9.216;2023-12-29T04:48:14;12.20;73.50
610;DHT22;292;48.800;9.216;2023-12-29T04:50:41;12.20;73.70
610;DHT22;292;48.800;9.216;2023-12-29T04:53:08;12.20;73.80
610;DHT22;292;48.800;9.216;2023-12-29T04:55:35;12.20;73.90
610;DHT22;292;48.800;9.216;2023-12-29T04:58:04;12.20;74.10
610;DHT22;292;48.800;9.216;2023-12-29T05:00:31;12.20;74.20
610;DHT22;292;48.800;9.216;2023-12-29T05:02:58;12.20;74.40
610;DHT22;292;48.800;9.216;2023-12-29T05:05:25;12.20;74.50
610;DHT22;292;48.800;9.216;2023-12-29T05:07:52;12.10;74.50
610;DHT22;292;48.800;9.216;2023-12-29T05:10:19;12.10;74.80
610;DHT22;292;48.800;9.216;2023-12-29T05:12:46;12.10;75.00
610;DHT22;292;48.800;9.216;2023-12-29T05:15:15;12.10;75.10
610;DHT22;292;48.800;9.216;2023-12-29T05:17:42;12.10;75.10
610;DHT22;292;48.800;9.216;2023-12-29T05:20:10;12.10;75.40
610;DHT22;292;48.800;9.216;2023-12-29T05:22:37;12.10;75.40
610;DHT22;292;48.800;9.216;2023-12-29T05:25:06;12.10;75.50
610;DHT22;292;48.800;9.216;2023-12-29T05:27:33;12.10;75.70
610;DHT22;292;48.800;9.216;2023-12-29T05:30:00;12.20;75.80
610;DHT22;292;48.800;9.216;2023-12-29T05:32:29;12.20;75.70
610;DHT22;292;48.800;9.216;2023-12-29T05:34:56;12.20;75.80
610;DHT22;292;48.800;9.216;2023-12-29T05:37:23;12.20;75.80
610;DHT22;292;48.800;9.216;2023-12-29T05:39:50;12.20;76.00
610;DHT22;292;48.800;9.216;2023-12-29T05:42:17;12.10;76.20
610;DHT22;292;48.800;9.216;2023-12-29T05:44:44;12.20;76.50
610;DHT22;292;48.800;9.216;2023-12-29T05:47:12;12.20;76.70
610;DHT22;292;48.800;9.216;2023-12-29T05:49:40;12.20;76.80
610;DHT22;292;48.800;9.216;2023-12-29T05:52:08;12.20;77.00
610;DHT22;292;48.800;9.216;2023-12-29T05:54:35;12.20;77.00
610;DHT22;292;48.800;9.216;2023-12-29T05:57:02;12.20;77.10
610;DHT22;292;48.800;9.216;2023-12-29T05:59:29;12.10;77.50
610;DHT22;292;48.800;9.216;2023-12-29T06:01:56;12.10;77.70
610;DHT22;292;48.800;9.216;2023-12-29T06:04:23;12.10;78.00
610;DHT22;292;48.800;9.216;2023-12-29T06:06:52;12.10;78.30
610;DHT22;292;48.800;9.216;2023-12-29T06:09:19;12.10;78.40
610;DHT22;292;48.800;9.216;2023-12-29T06:11:46;12.10;78.60
610;DHT22;292;48.800;9.216;2023-12-29T06:14:13;12.10;78.70
610;DHT22;292;48.800;9.216;2023-12-29T06:16:40;12.00;78.80
610;DHT22;292;48.800;9.216;2023-12-29T06:19:08;12.00;79.10
610;DHT22;292;48.800;9.216;2023-12-29T06:21:40;12.00;79.30
610;DHT22;292;48.800;9.216;2023-12-29T06:24:09;12.00;79.40
610;DHT22;292;48.800;9.216;2023-12-29T06:26:36;12.00;79.40
610;DHT22;292;48.800;9.216;2023-12-29T06:29:07;12.00;79.60
610;DHT22;292;48.800;9.216;2023-12-29T06:31:34;12.00;79.60
610;DHT22;292;48.800;9.216;2023-12-29T06:34:01;12.00;79.70
610;DHT22;292;48.800;9.216;2023-12-29T06:36:28;12.00;79.70
610;DHT22;292;48.800;9.216;2023-12-29T06:38:55;12.00;79.70
610;DHT22;292;48.800;9.216;2023-12-29T06:41:24;12.00;79.90
610;DHT22;292;48.800;9.216;2023-12-29T06:43:51;12.00;79.90
610;DHT22;292;48.800;9.216;2023-12-29T06:46:18;12.00;79.90
610;DHT22;292;48.800;9.216;2023-12-29T06:48:44;12.00;79.90
610;DHT22;292;48.800;9.216;2023-12-29T06:51:16;12.00;79.90
610;DHT22;292;48.800;9.216;2023-12-29T06:53:43;12.00;79.90
610;DHT22;292;48.800;9.216;2023-12-29T06:56:13;12.00;79.70
610;DHT22;292;48.800;9.216;2023-12-29T06:58:42;12.00;79.70
610;DHT22;292;48.800;9.216;2023-12-29T07:01:09;12.00;79.90
610;DHT22;292;48.800;9.216;2023-12-29T07:03:36;12.00;79.90
610;DHT22;292;48.800;9.216;2023-12-29T07:06:03;12.00;80.00
610;DHT22;292;48.800;9.216;2023-12-29T07:08:30;12.00;80.00
610;DHT22;292;48.800;9.216;2023-12-29T07:10:57;12.00;80.10
610;DHT22;292;48.800;9.216;2023-12-29T07:13:24;12.00;80.10
610;DHT22;292;48.800;9.216;2023-12-29T07:15:53;12.00;80.10
610;DHT22;292;48.800;9.216;2023-12-29T07:18:20;12.10;80.10
610;DHT22;292;48.800;9.216;2023-12-29T07:20:47;12.10;80.10
610;DHT22;292;48.800;9.216;2023-12-29T07:23:14;12.10;80.00
610;DHT22;292;48.800;9.216;2023-12-29T07:25:41;12.10;80.00
610;DHT22;292;48.800;9.216;2023-12-29T07:28:07;12.10;80.10
610;DHT22;292;48.800;9.216;2023-12-29T07:30:34;12.10;80.10
610;DHT22;292;48.800;9.216;2023-12-29T07:33:03;12.10;80.10
610;DHT22;292;48.800;9.216;2023-12-29T07:35:30;12.10;80.10
610;DHT22;292;48.800;9.216;2023-12-29T07:37:57;12.10;80.30
610;DHT22;292;48.800;9.216;2023-12-29T07:40:24;12.10;80.30
610;DHT22;292;48.800;9.216;2023-12-29T07:42:51;12.10;80.30
610;DHT22;292;48.800;9.216;2023-12-29T07:45:19;12.10;80.40
610;DHT22;292;48.800;9.216;2023-12-29T07:47:46;12.10;80.40
610;DHT22;292;48.800;9.216;2023-12-29T07:50:15;12.10;80.30
610;DHT22;292;48.800;9.216;2023-12-29T07:52:42;12.20;80.30
610;DHT22;292;48.800;9.216;2023-12-29T07:55:09;12.20;80.30
610;DHT22;292;48.800;9.216;2023-12-29T07:57:36;12.20;80.30
610;DHT22;292;48.800;9.216;2023-12-29T08:00:04;12.20;80.10
610;DHT22;292;48.800;9.216;2023-12-29T08:02:32;12.20;80.10
610;DHT22;292;48.800;9.216;2023-12-29T08:04:59;12.20;79.90
610;DHT22;292;48.800;9.216;2023-12-29T08:07:27;12.30;79.90
610;DHT22;292;48.800;9.216;2023-12-29T08:09:54;12.30;79.90
610;DHT22;292;48.800;9.216;2023-12-29T08:12:21;12.30;79.90
610;DHT22;292;48.800;9.216;2023-12-29T08:14:48;12.30;79.70
610;DHT22;292;48.800;9.216;2023-12-29T08:17:15;12.30;79.70
610;DHT22;292;48.800;9.216;2023-12-29T08:19:43;12.30;79.70
610;DHT22;292;48.800;9.216;2023-12-29T08:22:10;12.40;79.70
610;DHT22;292;48.800;9.216;2023-12-29T08:24:41;12.40;79.70
610;DHT22;292;48.800;9.216;2023-12-29T08:27:09;12.40;79.70
610;DHT22;292;48.800;9.216;2023-12-29T08:29:37;12.40;79.70
610;DHT22;292;48.800;9.216;2023-12-29T08:32:04;12.50;79.70
610;DHT22;292;48.800;9.216;2023-12-29T08:34:32;12.50;79.70
610;DHT22;292;48.800;9.216;2023-12-29T08:36:59;12.50;79.60
610;DHT22;292;48.800;9.216;2023-12-29T08:39:26;12.50;79.40
610;DHT22;292;48.800;9.216;2023-12-29T08:41:55;12.60;79.30
610;DHT22;292;48.800;9.216;2023-12-29T08:44:22;12.60;79.30
610;DHT22;292;48.800;9.216;2023-12-29T08:46:50;12.60;79.30
610;DHT22;292;48.800;9.216;2023-12-29T08:49:17;12.60;79.10
610;DHT22;292;48.800;9.216;2023-12-29T08:51:44;12.60;79.10
610;DHT22;292;48.800;9.216;2023-12-29T08:54:11;12.60;79.30
610;DHT22;292;48.800;9.216;2023-12-29T08:56:38;12.60;79.40
610;DHT22;292;48.800;9.216;2023-12-29T08:59:07;12.60;79.30
610;DHT22;292;48.800;9.216;2023-12-29T09:01:34;12.60;79.30
610;DHT22;292;48.800;9.216;2023-12-29T09:04:01;12.60;79.30
610;DHT22;292;48.800;9.216;2023-12-29T09:06:28;12.60;79.40
610;DHT22;292;48.800;9.216;2023-12-29T09:08:55;12.60;79.40
610;DHT22;292;48.800;9.216;2023-12-29T09:11:22;12.60;79.30
610;DHT22;292;48.800;9.216;2023-12-29T09:13:49;12.60;79.30
610;DHT22;292;48.800;9.216;2023-12-29T09:16:17;12.70;79.10
610;DHT22;292;48.800;9.216;2023-12-29T09:18:45;12.70;79.10
610;DHT22;292;48.800;9.216;2023-12-29T09:21:12;12.70;79.00
610;DHT22;292;48.800;9.216;2023-12-29T09:23:39;12.70;78.80
610;DHT22;292;48.800;9.216;2023-12-29T09:26:06;12.70;78.70
610;DHT22;292;48.800;9.216;2023-12-29T09:28:33;12.70;78.70
610;DHT22;292;48.800;9.216;2023-12-29T09:31:00;12.70;78.70
610;DHT22;292;48.800;9.216;2023-12-29T09:33:29;12.80;78.70
610;DHT22;292;48.800;9.216;2023-12-29T09:35:56;12.80;78.60
610;DHT22;292;48.800;9.216;2023-12-29T09:38:22;12.90;78.70
610;DHT22;292;48.800;9.216;2023-12-29T09:40:50;13.00;78.60
610;DHT22;292;48.800;9.216;2023-12-29T09:43:18;13.20;78.60
610;DHT22;292;48.800;9.216;2023-12-29T09:45:46;13.30;77.80
610;DHT22;292;48.800;9.216;2023-12-29T09:48:16;13.40;77.10
610;DHT22;292;48.800;9.216;2023-12-29T09:50:47;13.40;77.00
610;DHT22;292;48.800;9.216;2023-12-29T09:53:17;13.40;76.70
610;DHT22;292;48.800;9.216;2023-12-29T09:55:48;13.50;76.70
610;DHT22;292;48.800;9.216;2023-12-29T09:58:16;13.50;76.70
610;DHT22;292;48.800;9.216;2023-12-29T10:00:46;13.60;76.70
610;DHT22;292;48.800;9.216;2023-12-29T10:03:15;13.60;76.20
610;DHT22;292;48.800;9.216;2023-12-29T10:05:42;13.70;76.40
610;DHT22;292;48.800;9.216;2023-12-29T10:08:12;13.80;75.80
610;DHT22;292;48.800;9.216;2023-12-29T10:10:42;13.90;75.50
610;DHT22;292;48.800;9.216;2023-12-29T10:13:10;14.20;75.50
610;DHT22;292;48.800;9.216;2023-12-29T10:15:42;14.50;74.80
610;DHT22;292;48.800;9.216;2023-12-29T10:18:21;14.90;73.80
610;DHT22;292;48.800;9.216;2023-12-29T10:20:55;15.40;72.80
610;DHT22;292;48.800;9.216;2023-12-29T10:23:36;15.80;71.90
610;DHT22;292;48.800;9.216;2023-12-29T10:26:05;16.20;71.10
610;DHT22;292;48.800;9.216;2023-12-29T10:28:33;16.50;70.50
610;DHT22;292;48.800;9.216;2023-12-29T10:31:01;16.80;68.70
610;DHT22;292;48.800;9.216;2023-12-29T10:33:28;16.80;67.30
610;DHT22;292;48.800;9.216;2023-12-29T10:35:58;16.80;66.40
610;DHT22;292;48.800;9.216;2023-12-29T10:38:30;16.80;65.70
610;DHT22;292;48.800;9.216;2023-12-29T10:41:10;16.70;65.30
610;DHT22;292;48.800;9.216;2023-12-29T10:43:38;16.70;65.40
610;DHT22;292;48.800;9.216;2023-12-29T10:46:10;16.80;64.90
610;DHT22;292;48.800;9.216;2023-12-29T10:48:37;16.70;64.30
610;DHT22;292;48.800;9.216;2023-12-29T10:51:05;16.70;64.40
610;DHT22;292;48.800;9.216;2023-12-29T10:53:34;16.80;64.30
610;DHT22;292;48.800;9.216;2023-12-29T10:56:02;16.80;63.70
610;DHT22;292;48.800;9.216;2023-12-29T10:58:29;16.80;63.60
610;DHT22;292;48.800;9.216;2023-12-29T11:00:59;16.90;63.00
610;DHT22;292;48.800;9.216;2023-12-29T11:03:26;16.90;62.80
610;DHT22;292;48.800;9.216;2023-12-29T11:05:59;16.90;62.80
610;DHT22;292;48.800;9.216;2023-12-29T11:08:27;17.00;62.00
610;DHT22;292;48.800;9.216;2023-12-29T11:10:55;17.10;61.80
610;DHT22;292;48.800;9.216;2023-12-29T11:13:23;17.10;61.10
610;DHT22;292;48.800;9.216;2023-12-29T11:15:52;17.20;60.80
610;DHT22;292;48.800;9.216;2023-12-29T11:18:21;17.20;60.20
610;DHT22;292;48.800;9.216;2023-12-29T11:20:49;17.30;60.00
610;DHT22;292;48.800;9.216;2023-12-29T11:23:16;17.30;59.60
610;DHT22;292;48.800;9.216;2023-12-29T11:25:44;17.20;59.60
610;DHT22;292;48.800;9.216;2023-12-29T11:28:13;17.10;59.40
610;DHT22;292;48.800;9.216;2023-12-29T11:30:40;17.10;59.40
610;DHT22;292;48.800;9.216;2023-12-29T11:33:12;17.10;59.30
610;DHT22;292;48.800;9.216;2023-12-29T11:35:45;17.10;59.40
610;DHT22;292;48.800;9.216;2023-12-29T11:38:30;17.20;58.90
610;DHT22;292;48.800;9.216;2023-12-29T11:41:07;17.10;58.60
610;DHT22;292;48.800;9.216;2023-12-29T11:43:37;17.10;58.80
610;DHT22;292;48.800;9.216;2023-12-29T11:46:04;17.00;58.90
610;DHT22;292;48.800;9.216;2023-12-29T11:48:55;17.00;58.60
610;DHT22;292;48.800;9.216;2023-12-29T11:51:31;16.90;58.60
610;DHT22;292;48.800;9.216;2023-12-29T11:53:59;16.90;58.60
610;DHT22;292;48.800;9.216;2023-12-29T11:56:34;16.70;58.20
610;DHT22;292;48.800;9.216;2023-12-29T11:59:18;16.60;58.10
610;DHT22;292;48.800;9.216;2023-12-29T12:01:50;16.50;57.80
610;DHT22;292;48.800;9.216;2023-12-29T12:04:36;16.30;58.10
610;DHT22;292;48.800;9.216;2023-12-29T12:07:05;16.20;58.10
610;DHT22;292;48.800;9.216;2023-12-29T12:09:33;16.10;58.10
610;DHT22;292;48.800;9.216;2023-12-29T12:12:01;16.00;58.10
610;DHT22;292;48.800;9.216;2023-12-29T12:14:47;16.00;58.10
610;DHT22;292;48.800;9.216;2023-12-29T12:17:28;15.90;58.00
610;DHT22;292;48.800;9.216;2023-12-29T12:20:02;15.90;58.00
610;DHT22;292;48.800;9.216;2023-12-29T12:22:31;15.80;57.80
610;DHT22;292;48.800;9.216;2023-12-29T12:24:59;15.80;57.60
610;DHT22;292;48.800;9.216;2023-12-29T12:27:27;15.80;57.80
610;DHT22;292;48.800;9.216;2023-12-29T12:29:57;15.80;57.80
610;DHT22;292;48.800;9.216;2023-12-29T12:32:25;15.80;58.00
610;DHT22;292;48.800;9.216;2023-12-29T12:34:53;15.90;58.10
610;DHT22;292;48.800;9.216;2023-12-29T12:37:21;15.90;58.00
610;DHT22;292;48.800;9.216;2023-12-29T12:39:49;15.90;57.80
610;DHT22;292;48.800;9.216;2023-12-29T12:42:16;15.90;57.80
610;DHT22;292;48.800;9.216;2023-12-29T12:44:48;15.90;57.80
610;DHT22;292;48.800;9.216;2023-12-29T12:47:24;15.90;57.80
610;DHT22;292;48.800;9.216;2023-12-29T12:49:52;16.00;57.40
610;DHT22;292;48.800;9.216;2023-12-29T12:52:19;16.00;57.00
610;DHT22;292;48.800;9.216;2023-12-29T12:54:47;16.00;56.90
610;DHT22;292;48.800;9.216;2023-12-29T12:57:19;16.00;56.90
610;DHT22;292;48.800;9.216;2023-12-29T12:59:47;16.00;56.80
610;DHT22;292;48.800;9.216;2023-12-29T13:02:14;16.00;56.20
610;DHT22;292;48.800;9.216;2023-12-29T13:04:43;15.90;56.40
610;DHT22;292;48.800;9.216;2023-12-29T13:07:10;15.80;56.80
610;DHT22;292;48.800;9.216;2023-12-29T13:09:41;15.80;57.00
610;DHT22;292;48.800;9.216;2023-12-29T13:12:09;15.70;57.20
610;DHT22;292;48.800;9.216;2023-12-29T13:14:36;15.70;57.40
610;DHT22;292;48.800;9.216;2023-12-29T13:17:08;15.70;57.80
610;DHT22;292;48.800;9.216;2023-12-29T13:19:37;15.60;58.20
610;DHT22;292;48.800;9.216;2023-12-29T13:22:09;15.60;58.20
610;DHT22;292;48.800;9.216;2023-12-29T13:24:43;15.60;58.20
610;DHT22;292;48.800;9.216;2023-12-29T13:27:11;15.50;57.70
610;DHT22;292;48.800;9.216;2023-12-29T13:29:39;15.50;57.70
610;DHT22;292;48.800;9.216;2023-12-29T13:32:10;15.50;57.70
610;DHT22;292;48.800;9.216;2023-12-29T13:34:41;15.50;57.70
610;DHT22;292;48.800;9.216;2023-12-29T13:37:20;15.50;57.60
610;DHT22;292;48.800;9.216;2023-12-29T13:39:53;15.40;56.50
610;DHT22;292;48.800;9.216;2023-12-29T13:42:22;15.30;56.10
610;DHT22;292;48.800;9.216;2023-12-29T13:44:52;15.30;56.40
610;DHT22;292;48.800;9.216;2023-12-29T13:47:24;15.30;55.70
610;DHT22;292;48.800;9.216;2023-12-29T13:49:57;15.20;56.00
610;DHT22;292;48.800;9.216;2023-12-29T13:52:25;15.20;56.00
610;DHT22;292;48.800;9.216;2023-12-29T13:54:52;15.20;56.00
610;DHT22;292;48.800;9.216;2023-12-29T13:57:30;15.10;56.10
610;DHT22;292;48.800;9.216;2023-12-29T13:59:58;15.10;56.20
610;DHT22;292;48.800;9.216;2023-12-29T14:02:39;15.00;56.20
610;DHT22;292;48.800;9.216;2023-12-29T14:05:11;15.00;56.40
610;DHT22;292;48.800;9.216;2023-12-29T14:07:47;14.90;56.60
610;DHT22;292;48.800;9.216;2023-12-29T14:10:14;14.90;56.50
610;DHT22;292;48.800;9.216;2023-12-29T14:12:42;14.90;56.60
610;DHT22;292;48.800;9.216;2023-12-29T14:15:09;14.90;56.80
610;DHT22;292;48.800;9.216;2023-12-29T14:17:36;14.90;56.80
610;DHT22;292;48.800;9.216;2023-12-29T14:20:06;14.90;56.50
610;DHT22;292;48.800;9.216;2023-12-29T14:22:33;14.90;56.00
610;DHT22;292;48.800;9.216;2023-12-29T14:25:03;14.90;56.00
610;DHT22;292;48.800;9.216;2023-12-29T14:27:31;14.90;55.80
610;DHT22;292;48.800;9.216;2023-12-29T14:29:58;14.90;55.70
610;DHT22;292;48.800;9.216;2023-12-29T14:32:25;14.80;55.80
610;DHT22;292;48.800;9.216;2023-12-29T14:34:54;14.80;55.80
610;DHT22;292;48.800;9.216;2023-12-29T14:37:22;14.80;55.80
610;DHT22;292;48.800;9.216;2023-12-29T14:39:49;14.80;56.20
610;DHT22;292;48.800;9.216;2023-12-29T14:42:18;14.80;56.40
610;DHT22;292;48.800;9.216;2023-12-29T14:44:48;14.80;56.50
610;DHT22;292;48.800;9.216;2023-12-29T14:47:16;14.80;56.60
610;DHT22;292;48.800;9.216;2023-12-29T14:49:43;14.80;56.60
610;DHT22;292;48.800;9.216;2023-12-29T14:52:11;14.90;56.40
610;DHT22;292;48.800;9.216;2023-12-29T14:54:38;14.80;56.20
610;DHT22;292;48.800;9.216;2023-12-29T14:57:06;14.90;56.10
610;DHT22;292;48.800;9.216;2023-12-29T14:59:35;14.90;56.00
610;DHT22;292;48.800;9.216;2023-12-29T15:02:03;14.90;56.10
610;DHT22;292;48.800;9.216;2023-12-29T15:04:33;14.80;56.10
610;DHT22;292;48.800;9.216;2023-12-29T15:07:00;14.80;56.20
610;DHT22;292;48.800;9.216;2023-12-29T15:09:27;14.80;56.20
610;DHT22;292;48.800;9.216;2023-12-29T15:11:55;14.80;56.20
610;DHT22;292;48.800;9.216;2023-12-29T15:14:23;14.80;56.40
610;DHT22;292;48.800;9.216;2023-12-29T15:16:51;14.80;56.10
610;DHT22;292;48.800;9.216;2023-12-29T15:19:19;14.80;56.00
610;DHT22;292;48.800;9.216;2023-12-29T15:21:46;14.80;56.10
610;DHT22;292;48.800;9.216;2023-12-29T15:24:14;14.80;56.00
610;DHT22;292;48.800;9.216;2023-12-29T15:26:41;14.80;56.00
610;DHT22;292;48.800;9.216;2023-12-29T15:29:09;14.70;55.70
610;DHT22;292;48.800;9.216;2023-12-29T15:31:36;14.70;55.70
610;DHT22;292;48.800;9.216;2023-12-29T15:34:04;14.70;55.40
610;DHT22;292;48.800;9.216;2023-12-29T15:36:32;14.60;55.40
610;DHT22;292;48.800;9.216;2023-12-29T15:38:59;14.60;55.40
610;DHT22;292;48.800;9.216;2023-12-29T15:41:26;14.60;55.60
610;DHT22;292;48.800;9.216;2023-12-29T15:43:53;14.50;55.70
610;DHT22;292;48.800;9.216;2023-12-29T15:46:21;14.50;56.00
610;DHT22;292;48.800;9.216;2023-12-29T15:48:49;14.50;56.00
610;DHT22;292;48.800;9.216;2023-12-29T15:51:19;14.50;55.80
610;DHT22;292;48.800;9.216;2023-12-29T15:53:47;14.50;55.70
610;DHT22;292;48.800;9.216;2023-12-29T15:56:18;14.50;55.60
610;DHT22;292;48.800;9.216;2023-12-29T15:58:45;14.40;55.60
610;DHT22;292;48.800;9.216;2023-12-29T16:01:20;14.40;55.60
610;DHT22;292;48.800;9.216;2023-12-29T16:03:49;14.30;55.20
610;DHT22;292;48.800;9.216;2023-12-29T16:06:30;14.30;55.20
610;DHT22;292;48.800;9.216;2023-12-29T16:08:57;14.30;55.20
610;DHT22;292;48.800;9.216;2023-12-29T16:11:26;14.20;55.30
610;DHT22;292;48.800;9.216;2023-12-29T16:13:55;14.20;55.60
610;DHT22;292;48.800;9.216;2023-12-29T16:16:24;14.20;55.00
610;DHT22;292;48.800;9.216;2023-12-29T16:18:55;14.10;54.80
610;DHT22;292;48.800;9.216;2023-12-29T16:21:24;14.10;54.50
610;DHT22;292;48.800;9.216;2023-12-29T16:23:51;14.10;54.60
610;DHT22;292;48.800;9.216;2023-12-29T16:26:19;14.00;54.50
610;DHT22;292;48.800;9.216;2023-12-29T16:28:46;14.00;54.60
610;DHT22;292;48.800;9.216;2023-12-29T16:31:13;14.00;54.60
610;DHT22;292;48.800;9.216;2023-12-29T16:33:40;14.00;54.50
610;DHT22;292;48.800;9.216;2023-12-29T16:36:08;14.00;54.40
610;DHT22;292;48.800;9.216;2023-12-29T16:38:38;14.00;53.80
610;DHT22;292;48.800;9.216;2023-12-29T16:41:05;13.90;54.00
610;DHT22;292;48.800;9.216;2023-12-29T16:43:32;13.90;53.60